Time;durP1;ratioP1;P1;durP2;ratioP2;P2;SDS_P1;SDS_P2;PMS_P1;PMS_P2;Temp;Humidity;BMP_temperature;BMP_pressure;BME280_temperature;BME280_humidity;BME280_pressure;Samples;Min_cycle;Max_cycle;Signal;HPM_P1;HPM_P2
2021/11/17 02:26:09;;;;;;;13.03;8.87;;;;;;;8.92;35.32;100148.09;5041833;28;20086;-70
2021/11/17 02:28:41;;;;;;;12.27;7.57;;;;;;;8.08;36.04;100137.81;5055948;28;20071;-70
2021/11/17 02:31:26;;;;;;;11.17;8.37;;;;;;;8.18;35.93;100143.97;5055093;28;20048;-70
2021/11/17 02:34:05;;;;;;;13.93;7.90;;;;;;;8.87;35.41;100142.38;5055934;28;20392;-70
2021/11/17 02:37:27;;;;;;;11.93;7.27;;;;;;;9.25;34.61;100145.09;5039390;28;20388;-70
2021/11/17 02:40:17;;;;;;;13.03;7.90;;;;;;;8.92;35.03;100113.66;5008600;28;20382;-69
2021/11/17 02:42:55;;;;;;;10.37;7.47;;;;;;;8.22;35.56;100140.16;4991770;28;20225;-70
2021/11/17 02:45:43;;;;;;;15.80;7.53;;;;;;;9.10;35.02;100135.84;5042817;28;20060;-69
2021/11/17 02:48:24;;;;;;;13.53;7.47;;;;;;;9.08;35.00;100135.16;5055399;28;20129;-70
2021/11/17 02:51:09;;;;;;;9.43;6.20;;;;;;;9.07;34.69;100104.34;5072218;28;20044;-70
2021/11/17 02:54:00;;;;;;;9.50;6.53;;;;;;;9.18;34.66;100130.72;5057050;28;20054;-70
2021/11/17 02:56:41;;;;;;;9.35;6.28;;;;;;;8.61;35.12;100127.09;5072504;28;20194;-69
2021/11/17 02:59:27;;;;;;;7.63;5.28;;;;;;;9.30;34.56;100123.50;5089748;28;20586;-69
2021/11/17 03:01:59;;;;;;;6.80;5.10;;;;;;;8.63;34.83;100122.47;5055107;28;20044;-68
2021/11/17 03:04:55;;;;;;;7.77;4.93;;;;;;;9.47;34.26;100125.47;5038740;28;20093;-69
2021/11/17 03:07:42;;;;;;;7.37;5.13;;;;;;;9.15;34.73;100125.69;5001221;28;20088;-69
2021/11/17 03:10:08;;;;;;;8.87;5.03;;;;;;;8.51;35.05;100125.25;5071542;28;20066;-69
2021/11/17 03:12:55;;;;;;;6.57;4.83;;;;;;;8.42;35.40;100125.19;5054415;28;20514;-69
2021/11/17 03:15:37;;;;;;;5.63;4.77;;;;;;;9.18;34.88;100135.19;5038420;28;20040;-68
2021/11/17 03:18:22;;;;;;;7.67;5.00;;;;;;;9.09;35.17;100128.88;5071513;28;20056;-69
2021/11/17 03:20:50;;;;;;;7.90;5.30;;;;;;;8.48;35.33;100122.00;5038557;28;20040;-70
2021/11/17 03:23:16;;;;;;;11.83;7.03;;;;;;;8.49;35.18;100129.81;5071960;28;20376;-70
2021/11/17 03:26:01;;;;;;;9.17;5.60;;;;;;;8.93;34.90;100088.00;5055025;28;20051;-70
2021/11/17 03:28:32;;;;;;;6.80;4.93;;;;;;;8.62;35.16;100120.81;5040051;28;20074;-70
2021/11/17 03:31:04;;;;;;;6.30;4.90;;;;;;;8.54;35.07;100122.31;5089938;28;20044;-70
2021/11/17 03:33:39;;;;;;;10.53;5.40;;;;;;;8.68;35.09;100115.81;5055390;28;20048;-69
2021/11/17 03:36:42;;;;;;;6.93;5.13;;;;;;;9.35;34.66;100116.78;5038133;28;20135;-70
2021/11/17 03:39:38;;;;;;;8.93;5.20;;;;;;;9.45;34.29;100116.78;5054603;28;20074;-69
2021/11/17 03:42:10;;;;;;;6.77;4.50;;;;;;;9.09;35.13;100120.94;5073659;28;20518;-70
2021/11/17 03:45:07;;;;;;;7.87;5.30;;;;;;;9.14;35.00;100123.19;5075608;28;20132;-69
2021/11/17 03:48:07;;;;;;;6.00;4.23;;;;;;;8.66;35.60;100111.66;5059112;28;20048;-70
2021/11/17 03:51:00;;;;;;;6.50;4.90;;;;;;;8.57;35.61;100092.09;5075187;28;20051;-70
2021/11/17 03:53:48;;;;;;;6.80;4.60;;;;;;;8.51;36.11;100116.44;5027947;28;20392;-69
2021/11/17 03:56:43;;;;;;;5.43;4.20;;;;;;;8.34;36.41;100111.78;5043662;28;20043;-70
2021/11/17 03:59:19;;;;;;;7.90;4.70;;;;;;;8.12;36.38;100120.69;5061832;28;20056;-70
2021/11/17 04:02:13;;;;;;;5.90;4.53;;;;;;;8.84;35.47;100104.72;5058375;28;20082;-71
2021/11/17 04:04:57;;;;;;;10.40;5.63;;;;;;;8.98;35.36;100097.22;5041950;28;20082;-71
2021/11/17 04:07:51;;;;;;;6.63;4.63;;;;;;;8.52;36.28;100096.94;5041800;28;20047;-70
2021/11/17 04:10:30;;;;;;;8.83;4.47;;;;;;;8.79;35.88;100098.97;5058330;28;20048;-73
2021/11/17 04:13:18;;;;;;;6.87;4.63;;;;;;;8.70;35.64;100098.00;5041800;28;20090;-72
2021/11/17 04:15:53;;;;;;;6.80;4.67;;;;;;;8.94;35.43;100106.41;5043597;28;20044;-70
2021/11/17 04:18:19;;;;;;;10.27;4.70;;;;;;;8.41;35.68;100097.88;5057721;28;20070;-70
2021/11/17 04:21:05;;;;;;;6.50;3.97;;;;;;;9.04;35.39;100107.25;5058121;28;20044;-71
2021/11/17 04:23:52;;;;;;;4.70;3.97;;;;;;;8.54;35.69;100097.66;5093207;28;20492;-70
2021/11/17 04:26:26;;;;;;;5.87;4.03;;;;;;;9.02;35.15;100106.56;5091744;28;20492;-79
2021/11/17 04:29:11;;;;;;;5.93;4.37;;;;;;;8.42;35.73;100110.16;5093347;28;20047;-76
2021/11/17 04:31:52;;;;;;;5.67;4.67;;;;;;;9.12;35.15;100115.38;5093478;28;20044;-79
2021/11/17 04:34:55;;;;;;;6.17;4.50;;;;;;;9.06;34.82;100084.13;5075726;28;20677;-78
2021/11/17 04:37:40;;;;;;;6.93;4.03;;;;;;;9.28;34.84;100117.47;5101370;28;20103;-72
2021/11/17 04:40:25;;;;;;;6.67;4.60;;;;;;;9.43;34.59;100110.78;5075235;28;20048;-78
2021/11/17 04:43:10;;;;;;;5.43;4.20;;;;;;;9.32;34.95;100109.13;5093423;28;20079;-77
2021/11/17 04:45:45;;;;;;;6.30;4.53;;;;;;;9.15;35.07;100115.09;5058655;28;20101;-77
2021/11/17 04:48:35;;;;;;;7.03;4.97;;;;;;;9.20;34.82;100080.22;5093210;28;20046;-76
2021/11/17 04:51:37;;;;;;;5.88;4.63;;;;;;;9.34;34.99;100120.44;5074435;28;20047;-74
2021/11/17 04:54:06;;;;;;;5.63;4.57;;;;;;;8.97;34.84;100122.03;5008399;28;20382;-74
2021/11/17 04:56:55;;;;;;;10.00;4.60;;;;;;;9.56;34.33;100117.47;5087499;28;20044;-72
2021/11/17 04:59:46;;;;;;;7.20;4.20;;;;;;;9.59;34.45;100121.69;5056401;28;20130;-76
2021/11/17 05:02:17;;;;;;;5.17;4.40;;;;;;;9.41;34.56;100116.22;5090968;28;20040;-74
2021/11/17 05:04:49;;;;;;;5.97;4.47;;;;;;;9.42;34.66;100109.97;5074014;28;20043;-75
2021/11/17 05:07:18;;;;;;;6.00;4.37;;;;;;;8.88;34.76;100117.56;5091780;28;20113;-74
2021/11/17 05:09:56;;;;;;;5.00;4.10;;;;;;;9.31;34.68;100118.06;5074135;28;20077;-76
2021/11/17 05:12:33;;;;;;;5.13;4.20;;;;;;;9.28;34.63;100123.63;5073142;28;20125;-75
2021/11/17 05:15:31;;;;;;;6.97;4.30;;;;;;;9.55;34.31;100122.91;5092426;28;20097;-72
2021/11/17 05:18:09;;;;;;;5.77;4.50;;;;;;;9.58;34.09;100120.84;5091958;28;20131;-74
2021/11/17 05:21:11;;;;;;;6.83;5.23;;;;;;;9.60;34.08;100120.69;5092440;28;20153;-72
2021/11/17 05:23:48;;;;;;;5.50;4.70;;;;;;;9.43;34.19;100126.69;5075060;28;20070;-71
2021/11/17 05:26:45;;;;;;;6.10;4.47;;;;;;;9.61;33.79;100125.84;5077680;28;20051;-76
2021/11/17 05:29:13;;;;;;;8.37;4.07;;;;;;;9.61;33.95;100115.25;5091385;28;20713;-74
2021/11/17 05:31:51;;;;;;;5.37;4.60;;;;;;;9.64;33.78;100108.84;5056603;28;20059;-74
2021/11/17 05:34:35;;;;;;;5.27;4.53;;;;;;;9.22;34.21;100105.63;5091272;28;20109;-74
2021/11/17 05:37:03;;;;;;;7.40;4.87;;;;;;;9.06;34.91;100115.06;5091322;28;20538;-74
2021/11/17 05:39:57;;;;;;;7.10;4.13;;;;;;;9.21;34.55;100113.72;5090216;28;20178;-76
2021/11/17 05:42:43;;;;;;;5.30;4.10;;;;;;;9.10;34.31;100085.50;5072033;28;20039;-75
2021/11/17 05:45:38;;;;;;;6.53;4.37;;;;;;;9.36;34.31;100107.88;5088823;28;20139;-74
2021/11/17 05:48:29;;;;;;;8.73;4.90;;;;;;;9.45;33.61;100091.13;5086765;28;20047;-75
2021/11/17 05:51:10;;;;;;;6.18;4.30;;;;;;;9.40;34.07;100109.25;5071133;28;20088;-76
2021/11/17 05:53:58;;;;;;;5.93;4.27;;;;;;;9.17;34.40;100110.50;5071360;28;20051;-66
2021/11/17 05:56:49;;;;;;;6.40;4.10;;;;;;;9.39;34.28;100112.06;5088008;28;20054;-74
2021/11/17 05:59:39;;;;;;;4.95;3.75;;;;;;;9.25;34.20;100118.59;5088818;28;20122;-75
2021/11/17 06:02:11;;;;;;;5.68;4.00;;;;;;;8.91;34.40;100127.88;5068656;28;20097;-77
2021/11/17 06:04:37;;;;;;;8.37;4.27;;;;;;;8.98;34.32;100117.59;5090147;28;20036;-76
2021/11/17 06:07:03;;;;;;;6.60;4.40;;;;;;;9.24;33.94;100114.25;5089696;28;20503;-76
2021/11/17 06:09:28;;;;;;;6.87;4.33;;;;;;;9.11;34.01;100110.19;5071343;28;20265;-72
2021/11/17 06:12:00;;;;;;;6.30;4.30;;;;;;;9.11;34.01;100119.00;5089066;28;20466;-73
2021/11/17 06:14:28;;;;;;;5.53;3.93;;;;;;;9.53;33.89;100114.28;5071456;28;20173;-71
2021/11/17 06:16:58;;;;;;;6.80;4.43;;;;;;;9.76;33.65;100111.19;5071276;28;20130;-77
2021/11/17 06:19:27;;;;;;;5.33;4.30;;;;;;;9.41;33.63;100073.81;5054436;28;20043;-77
2021/11/17 06:21:54;;;;;;;9.47;4.40;;;;;;;9.63;33.66;100102.69;5054026;28;20035;-78
2021/11/17 06:24:22;;;;;;;6.60;4.17;;;;;;;9.87;33.39;100107.56;5071461;28;20032;-74
2021/11/17 06:26:49;;;;;;;7.57;4.63;;;;;;;9.56;33.44;100076.88;5037196;28;20100;-78
2021/11/17 06:29:23;;;;;;;5.03;3.70;;;;;;;9.74;33.46;100102.56;5090793;28;20519;-77
2021/11/17 06:31:50;;;;;;;8.83;4.60;;;;;;;9.75;33.54;100106.03;5055613;28;20039;-75
2021/11/17 06:34:28;;;;;;;9.27;4.80;;;;;;;10.09;32.96;100104.59;5071348;28;20541;-76
2021/11/17 06:36:54;;;;;;;8.47;4.80;;;;;;;9.45;34.02;100103.53;5070811;28;20040;-78
2021/11/17 06:39:21;;;;;;;9.63;4.93;;;;;;;9.34;33.79;100101.03;5070822;28;20035;-75
2021/11/17 06:41:47;;;;;;;9.27;4.97;;;;;;;9.02;34.44;100101.28;5070559;28;20024;-78
2021/11/17 06:44:13;;;;;;;6.17;4.10;;;;;;;9.33;34.05;100108.13;5071128;28;20043;-80
2021/11/17 06:46:39;;;;;;;6.17;4.07;;;;;;;9.35;33.93;100108.84;5071964;28;20514;-80
2021/11/17 06:49:05;;;;;;;9.63;3.93;;;;;;;9.45;33.61;100101.72;5072278;28;20036;-77
2021/11/17 06:51:31;;;;;;;5.57;3.83;;;;;;;9.55;33.54;100105.22;5039601;28;20424;-75
2021/11/17 06:53:56;;;;;;;5.63;3.70;;;;;;;9.24;33.63;100105.50;5091031;28;20046;-81
2021/11/17 06:56:22;;;;;;;4.53;3.37;;;;;;;9.23;33.84;100102.00;5055336;28;20036;-78
2021/11/17 06:58:49;;;;;;;6.00;4.00;;;;;;;9.54;33.40;100102.69;5055706;28;20070;-74
2021/11/17 07:01:14;;;;;;;8.07;3.53;;;;;;;9.47;33.38;100098.94;5070851;28;20042;-75
2021/11/17 07:03:40;;;;;;;8.20;3.87;;;;;;;9.47;33.19;100091.81;5088161;28;20040;-73
2021/11/17 07:06:07;;;;;;;8.60;3.80;;;;;;;9.70;32.96;100102.97;5082004;28;20094;-73
2021/11/17 07:08:33;;;;;;;4.90;3.80;;;;;;;9.51;33.03;100079.97;5089003;28;20067;-72
2021/11/17 07:10:59;;;;;;;4.70;3.60;;;;;;;9.66;33.20;100078.53;5071392;28;20488;-75
2021/11/17 07:13:26;;;;;;;6.53;3.70;;;;;;;9.66;33.09;100091.81;5053119;28;20051;-73
2021/11/17 07:15:52;;;;;;;6.10;3.63;;;;;;;9.58;33.28;100098.81;5070087;28;20047;-73
2021/11/17 07:18:18;;;;;;;17.60;4.10;;;;;;;9.73;33.04;100098.22;5089192;28;20040;-73
2021/11/17 07:20:46;;;;;;;9.60;4.20;;;;;;;10.32;32.58;100097.97;5071157;28;20036;-73
2021/11/17 07:23:14;;;;;;;12.23;4.10;;;;;;;10.31;32.49;100103.41;5089119;28;20051;-75
2021/11/17 07:25:40;;;;;;;8.50;3.83;;;;;;;10.12;32.15;100114.94;5054165;28;20051;-73
2021/11/17 07:28:06;;;;;;;8.23;3.97;;;;;;;10.22;32.39;100107.78;5090914;28;20040;-75
2021/11/17 07:30:36;;;;;;;8.57;3.63;;;;;;;10.57;32.08;100115.91;5089964;28;20073;-75
2021/11/17 07:33:04;;;;;;;13.23;4.63;;;;;;;10.39;32.34;100125.63;5088984;28;20074;-73
2021/11/17 07:35:31;;;;;;;7.63;3.63;;;;;;;10.05;32.47;100122.63;5066104;28;20396;-71
2021/11/17 07:38:01;;;;;;;7.27;3.93;;;;;;;10.04;32.61;100125.41;5039524;28;20049;-74
2021/11/17 07:40:32;;;;;;;10.65;3.88;;;;;;;10.42;32.40;100124.50;5053327;28;20286;-74
2021/11/17 07:43:12;;;;;;;7.83;4.00;;;;;;;10.49;32.57;100133.53;5068648;28;20570;-73
2021/11/17 07:45:39;;;;;;;11.80;3.60;;;;;;;10.56;32.24;100132.00;5035889;28;20036;-67
2021/11/17 07:48:05;;;;;;;5.87;3.83;;;;;;;10.36;32.14;100128.56;5087641;28;20052;-74
2021/11/17 07:50:31;;;;;;;9.90;4.03;;;;;;;10.43;32.00;100128.81;5052656;28;20123;-72
2021/11/17 07:52:57;;;;;;;5.23;3.80;;;;;;;10.33;31.78;100091.69;5088297;28;20143;-73
2021/11/17 07:55:23;;;;;;;7.03;4.17;;;;;;;10.54;31.72;100129.47;5053776;28;20189;-74
2021/11/17 07:57:51;;;;;;;7.83;3.87;;;;;;;10.76;31.77;100125.59;5064919;28;20477;-71
2021/11/17 08:00:23;;;;;;;5.00;3.63;;;;;;;10.80;31.83;100134.94;5045693;28;20032;-73
2021/11/17 08:02:50;;;;;;;5.77;4.20;;;;;;;10.27;32.31;100111.69;5088787;28;20053;-73
2021/11/17 08:05:17;;;;;;;10.30;4.00;;;;;;;10.71;32.01;100135.84;5088460;28;20040;-73
2021/11/17 08:07:43;;;;;;;5.97;4.03;;;;;;;10.60;31.79;100128.03;5069100;28;20051;-71
2021/11/17 08:10:21;;;;;;;7.83;4.03;;;;;;;11.07;31.33;100130.47;5070417;28;20523;-73
2021/11/17 08:12:47;;;;;;;6.43;3.90;;;;;;;10.45;31.55;100103.81;5033778;28;20055;-72
2021/11/17 08:15:13;;;;;;;5.53;4.37;;;;;;;10.74;31.60;100125.75;5062782;28;20044;-73
2021/11/17 08:17:40;;;;;;;4.87;3.70;;;;;;;10.67;31.51;100121.19;5054775;28;20416;-72
2021/11/17 08:20:11;;;;;;;4.97;3.93;;;;;;;10.87;31.71;100128.88;5047303;28;20036;-74
2021/11/17 08:22:41;;;;;;;10.63;5.57;;;;;;;10.62;31.49;100121.63;5050630;28;20037;-72
2021/11/17 08:25:08;;;;;;;8.23;3.80;;;;;;;10.82;31.66;100130.34;5065675;28;20044;-73
2021/11/17 08:27:34;;;;;;;6.40;3.93;;;;;;;10.74;31.63;100138.19;5059171;28;20041;-72
2021/11/17 08:30:00;;;;;;;8.03;4.30;;;;;;;10.41;31.97;100134.25;5050818;28;20044;-74
2021/11/17 08:32:27;;;;;;;5.17;3.70;;;;;;;10.69;31.81;100133.31;5059746;28;20067;-72
2021/11/17 08:34:53;;;;;;;6.70;3.70;;;;;;;10.50;31.72;100125.41;5064177;28;20056;-73
2021/11/17 08:37:19;;;;;;;5.70;3.10;;;;;;;10.48;31.91;100126.56;5060303;28;20049;-73
2021/11/17 08:39:48;;;;;;;4.93;3.67;;;;;;;10.40;31.95;100134.41;5061658;28;20037;-74
2021/11/17 08:42:15;;;;;;;8.07;3.90;;;;;;;10.48;32.33;100129.22;5064545;28;20043;-74
2021/11/17 08:44:42;;;;;;;7.37;3.87;;;;;;;10.48;32.29;100135.38;5057413;28;20041;-71
2021/11/17 08:47:09;;;;;;;8.13;3.90;;;;;;;10.74;31.88;100130.22;5060853;28;20048;-74
2021/11/17 08:49:36;;;;;;;6.00;3.60;;;;;;;10.64;31.77;100135.56;5067646;28;20037;-70
2021/11/17 08:52:03;;;;;;;10.17;4.30;;;;;;;10.79;31.74;100133.28;5050737;28;20044;-70
2021/11/17 08:54:29;;;;;;;9.97;4.37;;;;;;;10.79;31.27;100128.81;5068536;28;20036;-68
2021/11/17 08:56:58;;;;;;;4.83;3.40;;;;;;;10.70;31.33;100129.66;5066892;28;20092;-68
2021/11/17 08:59:25;;;;;;;7.93;3.60;;;;;;;10.72;31.75;100135.69;5069957;28;20503;-68
2021/11/17 09:01:55;;;;;;;8.17;3.70;;;;;;;10.83;31.71;100127.53;5069500;28;20487;-69
2021/11/17 09:04:21;;;;;;;5.80;4.20;;;;;;;10.34;31.99;100108.44;5053203;28;20044;-69
2021/11/17 09:06:47;;;;;;;15.27;4.93;;;;;;;10.60;31.70;100147.50;5071308;28;20044;-69
2021/11/17 09:09:13;;;;;;;5.83;4.43;;;;;;;10.67;31.41;100134.47;5069501;28;20049;-69
2021/11/17 09:11:40;;;;;;;5.37;3.70;;;;;;;10.76;31.00;100133.56;5069304;28;20079;-68
2021/11/17 09:14:07;;;;;;;4.13;3.30;;;;;;;10.94;31.14;100135.31;5069732;28;20052;-69
2021/11/17 09:16:34;;;;;;;3.73;3.30;;;;;;;11.24;30.87;100142.13;5071382;28;20044;-69
2021/11/17 09:19:03;;;;;;;4.43;3.77;;;;;;;11.37;30.70;100134.59;5057549;28;20092;-69
2021/11/17 09:21:32;;;;;;;8.80;5.53;;;;;;;11.48;30.47;100131.72;5069183;28;20500;-68
2021/11/17 09:24:00;;;;;;;3.53;2.90;;;;;;;11.46;30.28;100147.84;5070753;28;20136;-68
2021/11/17 09:26:27;;;;;;;8.23;4.10;;;;;;;11.11;30.47;100139.81;5069586;28;20373;-69
2021/11/17 09:28:54;;;;;;;5.07;3.20;;;;;;;11.33;30.39;100131.41;5068533;28;20547;-70
2021/11/17 09:31:22;;;;;;;6.13;3.37;;;;;;;11.61;30.14;100137.50;5070840;28;20123;-69
2021/11/17 09:33:47;;;;;;;9.20;3.43;;;;;;;11.50;29.78;100127.09;5052037;28;20037;-69
2021/11/17 09:36:16;;;;;;;6.90;3.47;;;;;;;11.92;29.58;100103.38;5068962;28;20102;-70
2021/11/17 09:38:43;;;;;;;7.53;4.47;;;;;;;11.71;29.63;100127.66;5069638;28;20097;-69
2021/11/17 09:41:15;;;;;;;6.63;3.80;;;;;;;12.32;29.11;100125.78;5068182;28;20036;-69
2021/11/17 09:43:47;;;;;;;6.50;3.87;;;;;;;12.40;28.90;100120.50;5069107;28;20374;-68
2021/11/17 09:46:20;;;;;;;9.67;5.40;;;;;;;12.28;28.81;100089.81;5048673;28;20037;-72
2021/11/17 09:48:48;;;;;;;11.40;4.77;;;;;;;12.19;29.11;100112.06;5055825;28;20043;-72
2021/11/17 09:51:37;;;;;;;11.37;4.90;;;;;;;12.44;28.68;100113.03;5068866;28;20051;-72
2021/11/17 09:54:12;;;;;;;8.87;4.23;;;;;;;12.30;29.00;100110.97;5068861;28;20048;-72
2021/11/17 09:56:49;;;;;;;6.20;4.30;;;;;;;12.39;28.85;100112.66;5057945;28;20052;-72
2021/11/17 09:59:32;;;;;;;7.40;4.43;;;;;;;12.53;28.70;100106.75;5048302;28;20072;-71
2021/11/17 10:02:09;;;;;;;7.47;4.20;;;;;;;12.30;28.95;100098.44;5066404;28;20133;-73
2021/11/17 10:04:49;;;;;;;9.60;4.20;;;;;;;12.29;29.00;100101.28;5046219;28;20044;-72
2021/11/17 10:13:30;;;;;;;10.20;4.00;;;;;;;12.34;29.08;100091.84;5047663;28;20139;-70
2021/11/17 10:15:56;;;;;;;6.63;3.57;;;;;;;11.52;29.88;100085.22;5047921;28;20040;-74
2021/11/17 10:18:31;;;;;;;10.20;4.03;;;;;;;12.24;29.11;100090.28;5048104;28;20158;-72
2021/11/17 10:21:02;;;;;;;6.80;4.00;;;;;;;12.12;29.33;100096.84;5049081;28;20287;-71
2021/11/17 10:23:49;;;;;;;9.20;3.65;;;;;;;12.09;29.28;100097.16;5050136;28;20051;-70
2021/11/17 10:26:17;;;;;;;8.37;4.23;;;;;;;11.80;29.33;100074.34;5049025;28;20087;-72
2021/11/17 10:28:46;;;;;;;9.43;4.07;;;;;;;11.88;29.15;100092.19;5047978;28;20044;-73
2021/11/17 10:31:26;;;;;;;11.90;4.33;;;;;;;11.95;29.01;100089.75;5054657;28;20044;-71
2021/11/17 10:34:10;;;;;;;14.63;5.40;;;;;;;12.71;28.70;100094.16;5068626;28;20743;-69
2021/11/17 10:36:57;;;;;;;9.70;4.53;;;;;;;12.57;28.75;100087.63;5046340;28;20037;-69
2021/11/17 10:39:34;;;;;;;7.07;4.13;;;;;;;12.87;28.23;100091.59;5066446;28;20040;-72
2021/11/17 10:42:11;;;;;;;6.93;4.17;;;;;;;12.57;28.77;100092.94;5064047;28;20072;-72
2021/11/17 10:44:59;;;;;;;9.67;3.70;;;;;;;12.57;28.77;100087.63;5064493;28;20055;-67
2021/11/17 10:47:28;;;;;;;6.73;3.50;;;;;;;12.49;28.97;100082.25;5067042;28;20033;-72
2021/11/17 10:50:13;;;;;;;4.90;3.40;;;;;;;12.65;28.77;100079.66;5065232;28;20047;-72
2021/11/17 10:52:53;;;;;;;8.33;4.10;;;;;;;12.65;28.71;100078.81;5063573;28;20040;-72
2021/11/17 10:55:25;;;;;;;12.40;3.75;;;;;;;12.60;28.82;100084.63;5065465;28;20512;-73
2021/11/17 10:57:52;;;;;;;8.67;4.13;;;;;;;12.32;29.02;100077.81;5066013;28;20052;-74
2021/11/17 11:00:22;;;;;;;11.10;4.50;;;;;;;12.57;28.83;100079.63;5067477;28;20560;-71
2021/11/17 11:02:51;;;;;;;5.70;3.92;;;;;;;12.66;28.55;100084.00;5068554;28;20037;-73
2021/11/17 11:05:20;;;;;;;13.97;4.67;;;;;;;12.65;28.53;100082.34;5051200;28;20041;-70
2021/11/17 11:07:57;;;;;;;8.80;4.17;;;;;;;12.75;28.54;100080.34;5068150;28;20127;-71
2021/11/17 11:10:45;;;;;;;8.33;4.10;;;;;;;12.98;28.02;100077.94;5066838;28;20033;-73
2021/11/17 11:13:18;;;;;;;7.57;3.60;;;;;;;12.70;28.57;100077.34;5051336;28;20052;-72
2021/11/17 11:15:50;;;;;;;11.30;4.47;;;;;;;12.79;28.50;100068.38;5069327;28;20530;-70
2021/11/17 11:18:19;;;;;;;7.70;4.10;;;;;;;12.33;28.65;100071.50;5067024;28;20416;-73
2021/11/17 11:20:45;;;;;;;7.93;4.60;;;;;;;12.35;28.69;100071.34;5067205;28;20055;-71
2021/11/17 11:23:27;;;;;;;15.37;4.43;;;;;;;12.88;28.24;100072.75;5067429;28;20041;-72
2021/11/17 11:25:52;;;;;;;20.90;4.87;;;;;;;12.32;28.68;100067.19;5068386;28;20059;-70
2021/11/17 11:28:21;;;;;;;11.90;4.83;;;;;;;12.82;28.62;100073.38;5067631;28;20488;-71
2021/11/17 11:30:49;;;;;;;16.93;4.70;;;;;;;12.55;28.73;100070.94;5066250;28;20048;-72
2021/11/17 11:33:53;;;;;;;14.32;4.38;;;;;;;12.82;28.57;100073.38;5054167;28;20128;-74
2021/11/17 11:36:20;;;;;;;12.10;4.63;;;;;;;12.14;29.08;100070.91;5048923;28;20074;-73
2021/11/17 11:38:58;;;;;;;16.20;5.30;;;;;;;12.67;28.77;100068.84;5049177;28;20377;-72
2021/11/17 11:42:01;;;;;;;10.83;4.27;;;;;;;12.72;28.75;100074.50;5049215;28;20056;-74
2021/11/17 11:44:35;;;;;;;14.37;4.70;;;;;;;12.74;28.70;100073.38;5048663;28;20045;-74
2021/11/17 11:47:04;;;;;;;8.30;4.97;;;;;;;12.72;28.76;100074.50;5048558;28;20041;-72
2021/11/17 11:49:35;;;;;;;11.57;4.50;;;;;;;12.73;28.73;100074.34;5031185;28;20041;-73
2021/11/17 11:52:04;;;;;;;;;;;;;;;13.10;28.00;100072.16;5049291;28;20059;-74
2021/11/17 11:54:54;;;;;;;10.70;4.10;;;;;;;12.90;28.44;100077.94;5047547;28;19986;-74
2021/11/17 11:58:01;;;;;;;9.20;4.30;;;;;;;12.84;28.60;100079.38;5063557;28;20127;-72
2021/11/17 12:00:36;;;;;;;13.83;4.10;;;;;;;13.01;28.28;100077.63;5053048;28;20079;-73
2021/11/17 12:03:03;;;;;;;15.67;4.37;;;;;;;12.39;28.46;100083.38;5069714;28;20048;-72
2021/11/17 12:05:46;;;;;;;10.17;4.07;;;;;;;12.96;28.34;100080.75;5037640;28;20113;-71
2021/11/17 12:08:16;;;;;;;8.97;4.03;;;;;;;12.86;28.54;100076.56;5071485;28;20098;-74
2021/11/17 12:11:02;;;;;;;11.63;4.47;;;;;;;12.78;28.76;100080.03;5070851;28;20063;-74
2021/11/17 12:13:31;;;;;;;8.00;3.63;;;;;;;12.31;29.21;100068.19;5084418;28;20056;-73
2021/11/17 12:16:17;;;;;;;5.87;3.70;;;;;;;12.51;28.86;100066.94;5092583;28;20047;-74
2021/11/17 12:18:54;;;;;;;6.23;3.90;;;;;;;12.55;29.26;100070.94;5074663;28;20078;-69
2021/11/17 12:21:26;;;;;;;8.67;3.70;;;;;;;12.34;29.44;100053.69;5057077;28;20044;-74
2021/11/17 12:24:11;;;;;;;5.20;3.30;;;;;;;12.60;29.14;100070.47;5074204;28;20071;-72
2021/11/17 12:26:42;;;;;;;11.70;4.00;;;;;;;12.53;29.25;100072.94;5057728;28;20048;-75
2021/11/17 12:29:15;;;;;;;9.70;3.30;;;;;;;12.58;29.18;100070.63;5092200;28;20040;-73
2021/11/17 12:32:35;;;;;;;10.10;4.30;;;;;;;12.75;28.71;100080.34;5091818;28;20086;-74
2021/11/17 12:35:33;;;;;;;10.03;4.50;;;;;;;12.54;28.91;100066.63;5009049;28;20494;-73
2021/11/17 12:38:01;;;;;;;8.33;4.90;;;;;;;11.84;29.55;100066.88;5073663;28;20035;-73
2021/11/17 12:41:03;;;;;;;9.13;4.30;;;;;;;12.36;29.52;100057.84;5072781;28;20043;-70
2021/11/17 12:43:33;;;;;;;13.90;4.33;;;;;;;11.81;29.76;100064.50;5034743;28;20097;-70
2021/11/17 12:46:05;;;;;;;10.47;4.50;;;;;;;12.26;29.69;100058.97;5073904;28;20076;-71
2021/11/17 12:48:40;;;;;;;13.53;4.37;;;;;;;12.30;29.79;100065.69;5054842;28;20040;-71
2021/11/17 12:51:30;;;;;;;8.37;3.77;;;;;;;12.46;29.16;100061.25;5054495;28;20085;-72
2021/11/17 12:54:22;;;;;;;9.87;4.40;;;;;;;12.47;29.60;100068.25;5053254;28;20075;-71
2021/11/17 12:57:07;;;;;;;13.43;5.07;;;;;;;12.69;29.10;100069.50;5031522;28;20064;-72
2021/11/17 12:59:46;;;;;;;9.77;4.80;;;;;;;12.60;29.44;100081.97;5056727;28;20040;-68
2021/11/17 13:02:21;;;;;;;12.10;5.20;;;;;;;12.56;29.31;100080.59;5071974;28;20442;-72
2021/11/17 13:05:18;;;;;;;9.57;4.83;;;;;;;12.64;29.24;100069.16;5090127;28;20051;-73
2021/11/17 13:07:47;;;;;;;11.53;5.20;;;;;;;12.22;29.72;100068.28;5078787;28;20529;-66
2021/11/17 13:10:29;;;;;;;11.20;4.80;;;;;;;12.27;29.38;100071.31;5073531;28;20093;-72
2021/11/17 13:13:03;;;;;;;8.70;4.43;;;;;;;12.13;29.94;100077.22;5063638;28;20139;-72
2021/11/17 13:15:44;;;;;;;8.27;4.43;;;;;;;11.96;30.34;100070.97;5065268;28;20065;-73
2021/11/17 13:18:33;;;;;;;18.90;5.45;;;;;;;12.12;30.08;100072.88;5056087;28;20044;-74
2021/11/17 13:21:08;;;;;;;9.63;5.37;;;;;;;12.02;30.17;100062.34;5073311;28;20526;-73
2021/11/17 13:23:41;;;;;;;18.40;7.80;;;;;;;11.62;30.38;100051.38;5090643;28;20375;-69
2021/11/17 13:26:15;;;;;;;15.90;9.73;;;;;;;11.93;30.60;100068.63;5056213;28;20135;-71
2021/11/17 13:28:43;;;;;;;8.17;4.80;;;;;;;11.61;30.84;100058.53;5073247;28;20105;-71
2021/11/17 13:31:28;;;;;;;8.70;4.93;;;;;;;12.04;30.33;100055.03;5090932;28;20040;-71
2021/11/17 13:34:25;;;;;;;8.03;4.70;;;;;;;11.88;30.46;100069.06;5068006;28;20361;-70
2021/11/17 13:36:52;;;;;;;7.60;3.93;;;;;;;11.42;31.16;100058.69;5069108;28;20123;-71
2021/11/17 13:39:24;;;;;;;13.43;4.57;;;;;;;11.42;31.33;100063.19;5073140;28;20040;-71
2021/11/17 13:41:54;;;;;;;18.63;4.67;;;;;;;11.49;31.45;100051.78;5090894;28;20116;-73
2021/11/17 13:44:23;;;;;;;14.38;4.93;;;;;;;11.37;31.58;100052.16;5079697;28;20499;-72
2021/11/17 13:47:10;;;;;;;13.77;5.73;;;;;;;11.62;31.13;100054.91;5071246;28;20138;-71
2021/11/17 13:49:42;;;;;;;18.97;5.67;;;;;;;11.28;31.56;100031.81;5089809;28;20048;-71
2021/11/17 13:52:09;;;;;;;14.37;6.00;;;;;;;11.27;31.73;100040.78;5056213;28;20477;-73
2021/11/17 13:54:36;;;;;;;12.67;6.27;;;;;;;10.93;31.85;100050.41;5055376;28;20083;-72
2021/11/17 13:57:04;;;;;;;14.20;6.37;;;;;;;11.36;32.24;100053.16;5072517;28;20042;-72
2021/11/17 13:59:30;;;;;;;13.90;7.30;;;;;;;10.99;31.91;100045.34;5090743;28;20078;-74
2021/11/17 14:01:56;;;;;;;13.50;6.63;;;;;;;10.93;31.79;100051.22;5088874;28;20488;-74
2021/11/17 14:04:24;;;;;;;12.00;5.67;;;;;;;11.36;31.73;100046.00;5071973;28;20042;-73
2021/11/17 14:06:51;;;;;;;11.50;5.50;;;;;;;11.33;31.75;100061.44;5090441;28;20100;-74
2021/11/17 14:09:16;;;;;;;23.80;6.43;;;;;;;10.83;32.07;100018.59;5072311;28;20563;-71
2021/11/17 14:11:43;;;;;;;15.27;5.63;;;;;;;11.14;31.94;100056.28;5070690;28;20127;-72
2021/11/17 14:14:08;;;;;;;16.57;6.33;;;;;;;10.99;31.95;100055.97;5089844;28;20060;-71
2021/11/17 14:16:34;;;;;;;16.27;6.40;;;;;;;11.15;31.88;100053.47;5071773;28;20051;-72
2021/11/17 14:19:00;;;;;;;21.07;6.80;;;;;;;11.11;32.15;100043.28;5090294;28;20189;-71
2021/11/17 14:21:26;;;;;;;22.97;6.70;;;;;;;11.03;31.88;100024.59;5089911;28;20039;-72
2021/11/17 14:23:53;;;;;;;15.73;6.23;;;;;;;11.49;31.95;100058.91;5071603;28;20164;-74
2021/11/17 14:26:20;;;;;;;14.60;6.17;;;;;;;11.29;32.06;100055.59;5069615;28;20482;-70
2021/11/17 14:28:50;;;;;;;22.33;6.63;;;;;;;11.46;31.97;100048.59;5054501;28;20105;-70
2021/11/17 14:31:27;;;;;;;14.23;5.60;;;;;;;11.60;31.85;100053.34;5071461;28;20200;-67
2021/11/17 14:34:00;;;;;;;12.63;5.00;;;;;;;10.84;32.60;100049.47;5035674;28;20041;-74
2021/11/17 14:36:30;;;;;;;10.80;4.57;;;;;;;11.40;32.26;100050.03;5088759;28;20031;-72